Briefing drone pour Bourg-de-peage

Rechercher une autre localisation

Conditions de vol :


Nous sommes le : Jeudi 26 mai 2022
Il est 06:01 UTC (08:01 LT)

Lever de soleil : 03:33 UTC (05:33 LT)
Coucher de soleil : 19:39 UTC (21:39 LT)

Météo

L'essentiel des conditions de vol

VIGILANCE MÉTÉO FRANCE - Drôme (26)
Pas de vigilances particulieres
CARTE TEMSI
CARTES DES FRONTS
METAR de LFLU
LFLU 251800Z AUTO 01018KT 9999 OVC068 22/07 Q1018

Date d'émission: 25/05/2022
Heure d'émission: 18:00 UTC
Vent: 010° pour 18 KT (33 km/h)
Visibilité horizontale: > 10 km
Plafond :
- Couvert à 6800ft (2073m)
Température: 22 °C
Point de rosée: 7 °C
Humidité: 38%
Pression (QNH): 1018 hPa
Prévision 24h pour Valence (10 km)
Vent : 29° pour 4 KT (13 km/h)
Temperature Maxi: 12 °C
Temperature Min: 12 °C
Humidité : 93%
Condition : Peu nuageux



Warning: count(): Parameter must be an array or an object that implements Countable in /homepages/6/d509196549/htdocs/droneoxygene/briefing.php on line 743
WEBCAM POUR BOURG-DE-PEAGE

Réglementation

Voler en sécurité

CARTES AERONAUTIQUE 1/500.000
CARTES VAC (LFLU)
SUP AIP




Chargement des AIP...
NOTAM (BOURG-DE-PEAGE + Terrain à proximité / FIR )




Chargement des NOTAMS...
CONTACT PREFECTURE 26
Drôme (26) : ddt-satem@drome.gouv.fr


Avertissement : Les données mises à disposition sont indicatives. Oxygène Drone ne pourra être tenu responsable de dégâts causés aux biens et aux personnes.